Time;durP1;ratioP1;P1;durP2;ratioP2;P2;SDS_P1;SDS_P2;PMS_P1;PMS_P2;Temp;Humidity;BMP_temperature;BMP_pressure;BME280_temperature;BME280_humidity;BME280_pressure;Samples;Min_cycle;Max_cycle;Signal;HPM_P1;HPM_P2
2020/12/12 00:01:26;;;;;;;0.30;0.30;;;7.80;98.90;;;;;;4114832;28;20559;-84
2020/12/12 00:03:28;;;;;;;0.10;0.10;;;7.80;99.00;;;;;;4099007;29;20051;-85
2020/12/12 00:05:29;;;;;;;0.43;0.25;;;7.80;99.10;;;;;;4082887;29;20090;-88
2020/12/12 00:07:31;;;;;;;0.20;0.20;;;7.80;99.00;;;;;;4114159;28;20055;-88
2020/12/12 00:09:32;;;;;;;0.20;0.20;;;7.80;99.20;;;;;;4082723;29;20066;-87
2020/12/12 00:11:33;;;;;;;0.40;0.32;;;7.80;99.30;;;;;;4098222;28;20052;-88
2020/12/12 00:13:35;;;;;;;0.20;0.20;;;7.80;99.30;;;;;;4114387;28;20416;-88
2020/12/12 00:15:36;;;;;;;0.40;0.35;;;7.80;99.20;;;;;;4083126;29;20067;-89
2020/12/12 00:17:37;;;;;;;0.30;0.30;;;7.80;99.30;;;;;;4114544;28;20051;-86
2020/12/12 00:19:39;;;;;;;0.20;0.20;;;7.80;99.40;;;;;;4114378;28;20403;-86
2020/12/12 00:21:40;;;;;;;0.20;0.20;;;7.80;99.50;;;;;;4099270;28;20419;-86
2020/12/12 00:23:41;;;;;;;0.10;0.10;;;7.80;99.60;;;;;;4082709;29;20060;-85
2020/12/12 00:25:47;;;;;;;0.60;0.60;;;7.80;99.60;;;;;;4114567;28;20419;-86
2020/12/12 00:27:49;;;;;;;0.20;0.20;;;7.80;99.50;;;;;;4084114;28;20524;-86
2020/12/12 00:29:50;;;;;;;0.20;0.20;;;7.80;99.60;;;;;;4098520;28;20051;-86
2020/12/12 00:31:55;;;;;;;0.20;0.20;;;7.80;99.50;;;;;;4098487;28;20049;-85
2020/12/12 00:33:56;;;;;;;0.50;0.50;;;7.80;99.70;;;;;;4099208;28;20118;-86
2020/12/12 00:35:59;;;;;;;0.40;0.30;;;7.70;99.90;;;;;;4083633;29;20504;-85
2020/12/12 00:38:00;;;;;;;0.35;0.35;;;7.80;99.90;;;;;;4116800;28;20050;-86
2020/12/12 00:40:02;;;;;;;0.20;0.20;;;7.80;99.80;;;;;;4102020;28;20525;-86
2020/12/12 00:42:05;;;;;;;0.43;0.32;;;7.70;99.80;;;;;;4117085;28;20055;-86
2020/12/12 00:44:07;;;;;;;0.30;0.30;;;7.70;99.80;;;;;;4085020;29;20055;-86
2020/12/12 00:46:08;;;;;;;0.52;0.50;;;7.70;99.80;;;;;;4101633;28;20066;-86
2020/12/12 00:48:09;;;;;;;0.20;0.20;;;7.70;99.80;;;;;;4100881;28;20078;-86
2020/12/12 00:50:10;;;;;;;0.20;0.20;;;7.80;99.80;;;;;;4117250;28;20051;-86
2020/12/12 00:52:12;;;;;;;0.98;0.45;;;7.80;99.80;;;;;;4085115;29;20055;-86
2020/12/12 00:54:13;;;;;;;0.40;0.40;;;7.80;99.90;;;;;;4101653;28;20043;-84
2020/12/12 00:56:15;;;;;;;0.52;0.52;;;7.80;99.90;;;;;;4116971;28;20607;-86
2020/12/12 00:58:16;;;;;;;0.20;0.15;;;7.80;99.80;;;;;;4085094;28;20063;-86
2020/12/12 01:00:17;;;;;;;0.90;0.47;;;7.80;99.70;;;;;;4101167;28;20058;-86
2020/12/12 01:02:18;;;;;;;0.73;0.57;;;7.90;99.70;;;;;;4100772;28;20055;-86
2020/12/12 01:04:20;;;;;;;0.30;0.30;;;7.90;99.70;;;;;;4117128;28;20446;-86
2020/12/12 01:06:21;;;;;;;0.30;0.30;;;7.90;99.80;;;;;;4085491;29;20066;-86
2020/12/12 01:08:22;;;;;;;1.08;0.55;;;7.80;99.70;;;;;;4084543;29;20052;-86
2020/12/12 01:10:25;;;;;;;0.65;0.65;;;7.90;99.90;;;;;;4116760;28;20051;-86
2020/12/12 01:12:26;;;;;;;0.50;0.50;;;7.80;99.90;;;;;;4101467;28;20110;-86
2020/12/12 01:14:27;;;;;;;1.05;0.57;;;7.80;99.90;;;;;;4100788;29;20559;-86
2020/12/12 01:16:28;;;;;;;0.25;0.25;;;7.80;99.90;;;;;;4116805;28;20062;-85
2020/12/12 01:18:30;;;;;;;0.50;0.22;;;7.80;99.90;;;;;;4100857;28;20051;-86
2020/12/12 01:20:31;;;;;;;0.20;0.20;;;7.70;99.90;;;;;;4100730;29;20066;-85
2020/12/12 01:22:32;;;;;;;0.40;0.40;;;7.80;99.90;;;;;;4116172;28;20102;-85
2020/12/12 01:24:34;;;;;;;1.30;0.50;;;7.70;99.90;;;;;;4096981;28;20059;-85
2020/12/12 01:26:35;;;;;;;1.10;0.73;;;7.70;99.90;;;;;;4084442;29;20535;-85
2020/12/12 01:28:36;;;;;;;0.43;0.43;;;7.70;99.90;;;;;;4099704;28;20067;-85
2020/12/12 01:30:38;;;;;;;0.40;0.40;;;7.70;99.90;;;;;;4117006;28;20062;-86
2020/12/12 01:32:39;;;;;;;0.20;0.20;;;7.70;99.90;;;;;;4084596;29;20054;-86
2020/12/12 01:34:40;;;;;;;0.30;0.30;;;7.70;99.90;;;;;;4100228;28;20051;-86
2020/12/12 01:36:42;;;;;;;0.38;0.38;;;7.70;99.90;;;;;;4101133;28;20059;-86
2020/12/12 01:38:43;;;;;;;0.60;0.50;;;7.70;99.90;;;;;;4100029;28;20622;-86
2020/12/12 01:40:45;;;;;;;1.50;0.32;;;7.60;99.90;;;;;;4100093;28;20475;-85
2020/12/12 01:42:46;;;;;;;0.40;0.38;;;7.60;99.90;;;;;;4101091;29;20063;-85
2020/12/12 01:44:47;;;;;;;0.38;0.38;;;7.60;99.90;;;;;;4115908;28;20064;-86
2020/12/12 01:46:49;;;;;;;0.45;0.32;;;7.60;99.90;;;;;;4115525;28;20503;-85
2020/12/12 01:48:51;;;;;;;0.63;0.30;;;7.60;99.90;;;;;;4084522;29;20056;-86
2020/12/12 01:50:53;;;;;;;0.73;0.55;;;7.60;99.90;;;;;;4115906;28;20676;-86
2020/12/12 01:52:56;;;;;;;0.20;0.20;;;7.60;99.90;;;;;;4099869;28;20055;-87
2020/12/12 01:54:57;;;;;;;0.55;0.50;;;7.60;99.90;;;;;;4100959;28;20432;-87
2020/12/12 01:57:01;;;;;;;0.30;0.30;;;7.60;99.90;;;;;;4099506;28;20499;-87
2020/12/12 01:59:02;;;;;;;0.40;0.40;;;7.60;99.90;;;;;;4084086;29;20128;-87
2020/12/12 02:01:04;;;;;;;0.32;0.28;;;7.60;99.90;;;;;;4116342;28;20051;-86
2020/12/12 02:03:05;;;;;;;0.50;0.50;;;7.60;99.90;;;;;;4099834;28;20058;-87
2020/12/12 02:05:07;;;;;;;0.20;0.20;;;7.50;99.90;;;;;;4084055;29;20059;-86
2020/12/12 02:07:08;;;;;;;0.93;0.45;;;7.50;99.90;;;;;;4100107;29;20451;-86
2020/12/12 02:09:12;;;;;;;0.40;0.40;;;7.40;99.90;;;;;;4100256;28;20061;-86
2020/12/12 02:11:13;;;;;;;0.30;0.22;;;7.40;99.90;;;;;;4099494;28;20571;-86
2020/12/12 02:13:16;;;;;;;0.28;0.25;;;7.50;99.90;;;;;;4084031;28;20055;-86
2020/12/12 02:15:17;;;;;;;0.85;0.40;;;7.40;99.90;;;;;;4084556;29;20058;-86
2020/12/12 02:17:18;;;;;;;0.82;0.40;;;7.40;99.90;;;;;;4084024;29;20043;-86
2020/12/12 02:19:20;;;;;;;0.95;0.38;;;7.40;99.90;;;;;;4115688;28;20050;-87
2020/12/12 02:21:24;;;;;;;0.35;0.30;;;7.40;99.90;;;;;;4099964;28;20074;-87
2020/12/12 02:23:26;;;;;;;0.40;0.40;;;7.40;99.90;;;;;;4083887;29;20059;-87
2020/12/12 02:25:28;;;;;;;0.50;0.40;;;7.40;99.90;;;;;;4099739;28;20055;-86
2020/12/12 02:27:29;;;;;;;0.65;0.65;;;7.40;99.90;;;;;;4100037;28;20043;-86
2020/12/12 02:29:45;;;;;;;0.68;0.55;;;7.40;99.90;;;;;;4115719;28;20614;-87
2020/12/12 02:31:47;;;;;;;0.57;0.28;;;7.50;99.90;;;;;;4101463;28;20051;-87
2020/12/12 02:33:49;;;;;;;1.00;0.57;;;7.50;99.90;;;;;;4100331;28;20055;-86
2020/12/12 02:35:50;;;;;;;0.20;0.20;;;7.40;99.90;;;;;;4099245;28;20098;-87
2020/12/12 02:37:51;;;;;;;1.10;0.55;;;7.40;99.90;;;;;;4099046;28;20063;-86
2020/12/12 02:39:53;;;;;;;0.35;0.35;;;7.40;99.90;;;;;;4100054;28;20050;-86
2020/12/12 02:41:54;;;;;;;0.88;0.82;;;7.40;99.90;;;;;;4099000;28;20055;-86
2020/12/12 02:43:57;;;;;;;0.20;0.20;;;7.40;99.90;;;;;;4115401;28;20131;-87
2020/12/12 02:45:58;;;;;;;1.02;0.73;;;7.40;99.90;;;;;;4100098;28;20054;-87
2020/12/12 02:47:59;;;;;;;1.08;0.75;;;7.40;99.90;;;;;;4099022;28;20527;-86
2020/12/12 02:50:11;;;;;;;0.50;0.50;;;7.40;99.90;;;;;;4114943;28;20062;-87
2020/12/12 02:52:13;;;;;;;0.50;0.50;;;7.40;99.90;;;;;;4084128;28;20055;-88
2020/12/12 02:54:14;;;;;;;0.65;0.65;;;7.40;99.90;;;;;;4099596;29;20055;-87
2020/12/12 02:56:16;;;;;;;1.02;0.88;;;7.50;99.90;;;;;;4092980;28;20051;-87
2020/12/12 02:58:17;;;;;;;1.30;0.80;;;7.50;99.90;;;;;;4116291;28;20058;-87
2020/12/12 03:00:20;;;;;;;0.30;0.30;;;7.50;99.90;;;;;;4099631;28;20090;-87
2020/12/12 03:02:21;;;;;;;0.38;0.30;;;7.40;99.90;;;;;;4098990;28;20388;-87
2020/12/12 03:04:24;;;;;;;0.40;0.30;;;7.40;99.90;;;;;;4115212;28;20084;-87
2020/12/12 03:06:25;;;;;;;2.05;0.38;;;7.40;99.90;;;;;;4099625;29;20070;-87
2020/12/12 03:08:27;;;;;;;0.50;0.40;;;7.40;99.90;;;;;;4098540;29;20069;-87
2020/12/12 03:10:28;;;;;;;0.90;0.65;;;7.40;99.90;;;;;;4115293;28;20062;-87
2020/12/12 03:12:29;;;;;;;0.30;0.30;;;7.40;99.90;;;;;;4083901;29;20056;-87
2020/12/12 03:14:31;;;;;;;0.55;0.55;;;7.40;99.90;;;;;;4083022;29;20127;-86
2020/12/12 03:16:32;;;;;;;0.35;0.30;;;7.40;99.90;;;;;;4114769;28;20569;-86
2020/12/12 03:18:34;;;;;;;1.35;0.88;;;7.40;99.90;;;;;;4083830;28;20568;-87
2020/12/12 03:20:35;;;;;;;1.00;1.00;;;7.40;99.90;;;;;;4098915;28;20130;-87
2020/12/12 03:22:36;;;;;;;0.45;0.43;;;7.40;99.90;;;;;;4114570;28;20055;-87
2020/12/12 03:24:37;;;;;;;0.65;0.45;;;7.50;99.90;;;;;;4083272;29;20055;-87
2020/12/12 03:26:39;;;;;;;1.95;0.68;;;7.40;99.90;;;;;;4099138;28;20055;-87
2020/12/12 03:28:40;;;;;;;0.65;0.45;;;7.50;99.90;;;;;;4098722;28;20051;-87
2020/12/12 03:30:41;;;;;;;0.77;0.60;;;7.50;99.90;;;;;;4099777;28;20059;-87
2020/12/12 03:32:42;;;;;;;0.40;0.35;;;7.50;99.90;;;;;;4114499;28;20130;-87
2020/12/12 03:34:44;;;;;;;2.22;1.75;;;7.40;99.90;;;;;;4083445;28;20048;-88
2020/12/12 03:36:45;;;;;;;0.82;0.30;;;7.50;99.90;;;;;;4098893;28;20609;-87
2020/12/12 03:38:47;;;;;;;0.57;0.40;;;7.50;99.90;;;;;;4114090;28;20549;-86
2020/12/12 03:40:48;;;;;;;0.30;0.30;;;7.40;99.90;;;;;;4097941;28;20051;-87
2020/12/12 03:42:53;;;;;;;0.43;0.30;;;7.50;99.90;;;;;;4098871;28;20581;-87
2020/12/12 03:44:54;;;;;;;0.68;0.68;;;7.40;99.90;;;;;;4114129;28;20069;-87
2020/12/12 03:46:56;;;;;;;0.70;0.55;;;7.40;99.90;;;;;;4082076;29;20427;-87
2020/12/12 03:48:57;;;;;;;0.30;0.30;;;7.40;99.90;;;;;;4114166;28;20093;-87
2020/12/12 03:50:58;;;;;;;0.28;0.28;;;7.40;99.90;;;;;;4098020;28;20062;-87
2020/12/12 03:53:00;;;;;;;0.20;0.20;;;7.40;99.90;;;;;;4097966;28;20083;-87
2020/12/12 03:55:01;;;;;;;1.38;1.27;;;7.50;99.90;;;;;;4098617;28;20051;-87
2020/12/12 03:57:02;;;;;;;0.20;0.20;;;7.50;99.90;;;;;;4081841;29;20056;-87
2020/12/12 03:59:04;;;;;;;0.63;0.63;;;7.50;99.90;;;;;;4113670;28;20050;-87
2020/12/12 04:01:05;;;;;;;1.75;0.65;;;7.40;99.90;;;;;;4082878;29;20511;-87
2020/12/12 04:03:07;;;;;;;0.52;0.52;;;7.40;99.90;;;;;;4113922;28;20447;-86
2020/12/12 04:05:08;;;;;;;0.50;0.45;;;7.50;99.90;;;;;;4098084;28;20403;-87
2020/12/12 04:07:09;;;;;;;0.30;0.30;;;7.40;99.90;;;;;;4097801;28;20435;-87
2020/12/12 04:09:10;;;;;;;0.57;0.55;;;7.50;99.90;;;;;;4098009;28;20591;-87
2020/12/12 04:11:12;;;;;;;0.50;0.50;;;7.40;99.90;;;;;;4099111;28;20051;-88
2020/12/12 04:13:13;;;;;;;0.38;0.30;;;7.40;99.90;;;;;;4116430;28;20137;-87
2020/12/12 04:15:14;;;;;;;0.60;0.60;;;7.30;99.90;;;;;;4085149;29;20048;-87
2020/12/12 04:17:15;;;;;;;0.30;0.30;;;7.30;99.90;;;;;;4100369;28;20051;-86
2020/12/12 04:19:17;;;;;;;0.45;0.40;;;7.30;99.90;;;;;;4084954;29;20075;-87
2020/12/12 04:21:18;;;;;;;0.40;0.40;;;7.30;99.90;;;;;;4083009;29;20555;-86
2020/12/12 04:23:19;;;;;;;1.02;0.52;;;7.30;99.90;;;;;;4084320;29;20051;-87
2020/12/12 04:25:20;;;;;;;0.15;0.13;;;7.40;99.90;;;;;;4085004;29;20067;-86
2020/12/12 04:27:22;;;;;;;0.22;0.22;;;7.40;99.90;;;;;;4100546;28;20055;-86
2020/12/12 04:29:23;;;;;;;0.32;0.30;;;7.40;99.90;;;;;;4100200;28;20400;-86
2020/12/12 04:31:24;;;;;;;0.60;0.52;;;7.40;99.90;;;;;;4116397;28;20446;-86
2020/12/12 04:33:27;;;;;;;0.70;0.70;;;7.30;99.90;;;;;;4085057;28;20107;-86
2020/12/12 04:35:29;;;;;;;0.30;0.30;;;7.40;99.90;;;;;;4100023;28;20452;-86
2020/12/12 04:37:30;;;;;;;0.77;0.77;;;7.40;99.90;;;;;;4074164;29;758472;-86
2020/12/12 04:39:31;;;;;;;0.60;0.60;;;7.40;99.90;;;;;;4101692;28;20503;-87
2020/12/12 04:41:34;;;;;;;1.08;0.98;;;7.40;99.90;;;;;;4100951;28;20065;-87
2020/12/12 04:43:35;;;;;;;0.30;0.20;;;7.40;99.90;;;;;;4101202;28;20055;-87
2020/12/12 04:45:36;;;;;;;0.43;0.40;;;7.40;99.90;;;;;;4085813;28;20068;-86
2020/12/12 04:47:44;;;;;;;0.30;0.30;;;7.40;99.90;;;;;;4100554;28;20058;-86
2020/12/12 04:49:46;;;;;;;0.57;0.30;;;7.40;99.90;;;;;;4100717;28;20043;-87
2020/12/12 04:51:48;;;;;;;0.32;0.30;;;7.50;99.90;;;;;;4101539;28;20051;-86
2020/12/12 04:53:49;;;;;;;0.43;0.43;;;7.40;99.90;;;;;;4101100;28;20055;-86
2020/12/12 04:55:51;;;;;;;0.47;0.47;;;7.40;99.90;;;;;;4117014;28;20059;-86
2020/12/12 04:57:53;;;;;;;0.45;0.22;;;7.40;99.90;;;;;;4101913;28;20062;-87
2020/12/12 04:59:54;;;;;;;0.20;0.20;;;7.40;99.90;;;;;;4100709;28;20539;-86
2020/12/12 05:01:57;;;;;;;0.63;0.50;;;7.40;99.90;;;;;;4116552;28;20126;-86
2020/12/12 05:04:00;;;;;;;0.20;0.20;;;7.50;99.90;;;;;;4101407;28;20059;-87
2020/12/12 05:06:02;;;;;;;0.40;0.40;;;7.40;99.90;;;;;;4100511;28;20093;-86
2020/12/12 05:08:03;;;;;;;0.85;0.85;;;7.40;99.90;;;;;;4100790;28;20062;-87
2020/12/12 05:10:04;;;;;;;1.88;0.73;;;7.40;99.90;;;;;;4116649;28;20590;-86
2020/12/12 05:12:06;;;;;;;0.40;0.40;;;7.40;99.90;;;;;;4100361;28;20071;-87
2020/12/12 05:14:08;;;;;;;0.20;0.20;;;7.40;99.90;;;;;;4085037;28;20635;-86
2020/12/12 05:16:09;;;;;;;0.30;0.30;;;7.40;99.90;;;;;;4100933;28;20065;-86
2020/12/12 05:18:10;;;;;;;0.70;0.57;;;7.40;99.90;;;;;;4085334;29;20078;-86
2020/12/12 05:20:12;;;;;;;0.30;0.30;;;7.30;99.90;;;;;;4084262;29;20551;-86
2020/12/12 05:22:14;;;;;;;0.30;0.30;;;7.30;99.90;;;;;;4100558;28;20129;-86
2020/12/12 05:24:15;;;;;;;0.95;0.40;;;7.30;99.90;;;;;;4101025;28;20462;-85
2020/12/12 05:26:17;;;;;;;0.35;0.30;;;7.30;99.90;;;;;;4084138;29;20527;-86
2020/12/12 05:28:20;;;;;;;0.82;0.70;;;7.30;99.90;;;;;;4084544;29;20057;-86
2020/12/12 05:30:21;;;;;;;0.30;0.30;;;7.30;99.90;;;;;;4085098;28;20098;-86
2020/12/12 05:32:23;;;;;;;0.50;0.43;;;7.30;99.90;;;;;;4084436;29;20056;-86
2020/12/12 05:34:25;;;;;;;0.40;0.40;;;7.30;99.90;;;;;;4084729;29;20087;-86
2020/12/12 05:36:28;;;;;;;0.65;0.43;;;7.30;99.90;;;;;;4084844;28;20075;-86
2020/12/12 05:38:30;;;;;;;0.43;0.40;;;7.30;99.90;;;;;;4115921;28;20051;-86
2020/12/12 05:40:32;;;;;;;0.30;0.20;;;7.30;99.90;;;;;;4100248;28;20055;-86
2020/12/12 05:42:34;;;;;;;0.20;0.20;;;7.30;99.90;;;;;;4096593;28;20058;-86
2020/12/12 05:44:35;;;;;;;0.40;0.40;;;7.30;99.90;;;;;;4116151;28;20066;-86
2020/12/12 05:46:38;;;;;;;0.40;0.40;;;7.30;99.90;;;;;;4099967;28;20067;-86
2020/12/12 05:48:40;;;;;;;0.40;0.40;;;7.30;99.90;;;;;;4100415;28;20479;-87
2020/12/12 05:50:41;;;;;;;5.30;1.35;;;7.40;99.90;;;;;;4084386;29;20056;-86
2020/12/12 05:52:43;;;;;;;0.80;0.45;;;7.40;99.90;;;;;;4115783;28;20142;-87
2020/12/12 05:54:45;;;;;;;0.50;0.50;;;7.40;99.90;;;;;;4084365;28;20051;-86
2020/12/12 05:56:46;;;;;;;0.60;0.40;;;7.40;99.90;;;;;;4099683;28;20138;-86
2020/12/12 05:58:47;;;;;;;0.60;0.50;;;7.40;99.90;;;;;;4099588;28;20067;-86
2020/12/12 06:00:48;;;;;;;0.50;0.40;;;7.40;99.90;;;;;;4084382;29;20060;-86
2020/12/12 06:03:06;;;;;;;0.40;0.40;;;7.40;99.90;;;;;;4089778;28;20063;-87
2020/12/12 06:05:07;;;;;;;0.50;0.43;;;7.40;99.90;;;;;;4099716;28;20055;-86
2020/12/12 06:07:09;;;;;;;1.20;1.10;;;7.40;99.90;;;;;;4099912;28;20051;-86
2020/12/12 06:09:13;;;;;;;0.80;0.75;;;7.40;99.90;;;;;;4109110;28;20054;-86
2020/12/12 06:11:14;;;;;;;0.52;0.40;;;7.40;99.90;;;;;;4115433;28;20129;-86
2020/12/12 06:13:15;;;;;;;0.38;0.25;;;7.40;99.90;;;;;;4099780;28;20061;-86
2020/12/12 06:15:18;;;;;;;0.20;0.20;;;7.40;99.90;;;;;;4083993;28;20520;-86
2020/12/12 06:17:26;;;;;;;0.35;0.35;;;7.40;99.90;;;;;;4099299;28;20055;-86
2020/12/12 06:19:27;;;;;;;0.70;0.43;;;7.40;99.90;;;;;;4115899;28;20047;-86
2020/12/12 06:21:29;;;;;;;0.50;0.50;;;7.40;99.90;;;;;;4116388;28;20082;-87
2020/12/12 06:23:30;;;;;;;1.25;0.43;;;7.30;99.90;;;;;;4099363;28;20069;-86
2020/12/12 06:25:32;;;;;;;1.13;0.88;;;7.40;99.90;;;;;;4083993;29;20052;-86
2020/12/12 06:27:37;;;;;;;0.35;0.35;;;7.40;99.90;;;;;;4100205;28;20055;-87
2020/12/12 06:29:43;;;;;;;0.63;0.63;;;7.40;99.90;;;;;;4083891;28;20068;-86
2020/12/12 06:31:44;;;;;;;0.20;0.20;;;7.30;99.90;;;;;;4099219;28;20530;-86
2020/12/12 06:33:50;;;;;;;0.85;0.40;;;7.40;99.90;;;;;;4099335;28;20528;-87
2020/12/12 06:35:51;;;;;;;0.20;0.20;;;7.40;99.90;;;;;;4099472;28;20578;-86
2020/12/12 06:37:52;;;;;;;0.68;0.68;;;7.40;99.90;;;;;;4114944;28;20137;-86
2020/12/12 06:39:53;;;;;;;0.25;0.25;;;7.40;99.90;;;;;;4083727;29;20054;-87
2020/12/12 06:41:56;;;;;;;0.93;0.85;;;7.40;99.90;;;;;;4099133;28;20055;-86
2020/12/12 06:43:58;;;;;;;5.63;0.85;;;7.40;99.90;;;;;;4099005;28;20047;-86
2020/12/12 06:46:01;;;;;;;0.65;0.43;;;7.50;99.90;;;;;;4115456;28;20050;-87
2020/12/12 06:48:02;;;;;;;0.50;0.40;;;7.50;99.90;;;;;;4083652;29;20055;-88
2020/12/12 06:50:11;;;;;;;1.20;0.82;;;7.50;99.90;;;;;;4114761;28;20061;-86
2020/12/12 06:52:27;;;;;;;0.65;0.57;;;7.50;99.90;;;;;;4069939;29;20062;-86
2020/12/12 06:54:28;;;;;;;0.70;0.70;;;7.40;99.90;;;;;;4114607;28;20055;-87
2020/12/12 06:56:31;;;;;;;0.65;0.65;;;7.50;99.90;;;;;;4107634;28;20057;-87
2020/12/12 06:58:33;;;;;;;0.75;0.75;;;7.50;99.90;;;;;;4083522;29;20158;-86
2020/12/12 07:00:35;;;;;;;0.57;0.57;;;7.50;99.90;;;;;;4099283;28;20055;-86
2020/12/12 07:02:36;;;;;;;0.30;0.28;;;7.50;99.90;;;;;;4114753;28;20055;-86
2020/12/12 07:04:38;;;;;;;0.20;0.20;;;7.50;99.90;;;;;;4099023;28;20527;-87
2020/12/12 07:06:39;;;;;;;0.90;0.70;;;7.50;99.90;;;;;;4099300;28;20066;-87
2020/12/12 07:08:41;;;;;;;2.38;1.10;;;7.40;99.90;;;;;;4114829;28;20054;-86
2020/12/12 07:10:43;;;;;;;1.27;1.13;;;7.50;99.90;;;;;;4114291;28;20046;-87
2020/12/12 07:12:45;;;;;;;0.80;0.75;;;7.50;99.90;;;;;;4099037;28;20100;-91
2020/12/12 07:14:47;;;;;;;0.20;0.20;;;7.50;99.90;;;;;;4112850;28;20057;-91
2020/12/12 07:16:56;;;;;;;1.17;0.43;;;7.40;99.90;;;;;;4114978;28;20054;-91
2020/12/12 07:18:58;;;;;;;0.40;0.40;;;7.40;99.90;;;;;;4115375;28;20081;-91
2020/12/12 07:20:59;;;;;;;0.55;0.40;;;7.40;99.90;;;;;;4114886;28;20060;-92
2020/12/12 07:23:05;;;;;;;0.90;0.90;;;7.40;99.90;;;;;;4099004;28;20423;-92
2020/12/12 07:25:07;;;;;;;0.93;0.45;;;7.40;99.90;;;;;;4115666;28;20082;-90
2020/12/12 07:27:09;;;;;;;0.50;0.50;;;7.40;99.90;;;;;;4116468;28;20053;-92
2020/12/12 07:29:10;;;;;;;0.77;0.35;;;7.40;99.90;;;;;;4099234;28;20142;-91
2020/12/12 07:31:11;;;;;;;0.63;0.43;;;7.40;99.90;;;;;;4114904;28;20074;-91
2020/12/12 07:33:13;;;;;;;1.35;0.70;;;7.40;99.90;;;;;;4130230;28;20053;-92
2020/12/12 07:35:14;;;;;;;1.15;1.05;;;7.40;99.90;;;;;;4114760;28;20476;-92
2020/12/12 07:37:15;;;;;;;1.90;0.68;;;7.40;99.90;;;;;;4099442;28;20110;-91
2020/12/12 07:39:16;;;;;;;2.08;1.88;;;7.40;99.90;;;;;;4099007;28;20047;-91
2020/12/12 07:41:18;;;;;;;0.70;0.70;;;7.50;99.90;;;;;;4098925;28;20047;-92
2020/12/12 07:43:19;;;;;;;1.17;0.70;;;7.50;99.90;;;;;;4115067;28;20065;-90
2020/12/12 07:45:47;;;;;;;1.65;1.10;;;7.40;99.90;;;;;;4112089;28;20406;-92
2020/12/12 07:47:48;;;;;;;0.88;0.52;;;7.40;99.90;;;;;;4117543;28;20061;-90
2020/12/12 07:49:50;;;;;;;0.85;0.65;;;7.40;99.90;;;;;;4101754;28;20259;-90
2020/12/12 07:52:08;;;;;;;1.48;0.50;;;7.50;99.90;;;;;;4086272;29;20055;-90
2020/12/12 07:54:22;;;;;;;0.40;0.40;;;7.50;99.90;;;;;;4102604;28;20422;-94
2020/12/12 07:56:24;;;;;;;1.33;0.95;;;7.50;99.90;;;;;;4103575;28;20055;-91
2020/12/12 07:58:31;;;;;;;1.00;0.60;;;7.50;99.90;;;;;;4119400;28;20081;-88
2020/12/12 08:00:32;;;;;;;0.20;0.20;;;7.50;99.90;;;;;;4117980;28;20059;-94
2020/12/12 08:02:33;;;;;;;0.60;0.40;;;7.50;99.90;;;;;;4103159;29;20511;-89
2020/12/12 08:04:35;;;;;;;1.00;0.90;;;7.50;99.90;;;;;;4104178;28;20047;-94
2020/12/12 08:06:36;;;;;;;0.52;0.50;;;7.50;99.90;;;;;;4118222;28;20055;-90
2020/12/12 08:08:38;;;;;;;0.75;0.50;;;7.50;99.90;;;;;;4116944;28;20069;-87
2020/12/12 08:10:39;;;;;;;0.95;0.88;;;7.50;99.90;;;;;;4100359;28;20063;-86
2020/12/12 08:12:42;;;;;;;1.73;1.02;;;7.60;99.90;;;;;;4101928;28;20077;-86
2020/12/12 08:14:45;;;;;;;1.20;0.60;;;7.60;99.90;;;;;;4101610;28;20058;-87
2020/12/12 08:16:48;;;;;;;0.38;0.30;;;7.60;99.90;;;;;;4107066;28;20046;-86
2020/12/12 08:18:49;;;;;;;0.38;0.38;;;7.60;99.90;;;;;;4102175;28;20555;-87
2020/12/12 08:20:51;;;;;;;1.20;0.60;;;7.60;99.90;;;;;;4100801;28;20055;-87
2020/12/12 08:22:52;;;;;;;0.30;0.30;;;7.70;99.90;;;;;;4100678;28;20358;-86
2020/12/12 08:24:53;;;;;;;1.17;0.55;;;7.60;99.90;;;;;;4117957;28;20050;-87
2020/12/12 08:26:54;;;;;;;0.28;0.28;;;7.70;99.90;;;;;;4100904;28;20047;-87
2020/12/12 08:28:59;;;;;;;0.68;0.68;;;7.70;99.90;;;;;;4116737;28;20054;-87
2020/12/12 08:31:11;;;;;;;0.55;0.52;;;7.70;99.90;;;;;;4101311;28;20130;-86
2020/12/12 08:33:12;;;;;;;0.77;0.60;;;7.80;99.90;;;;;;4101675;28;20055;-87
2020/12/12 08:35:34;;;;;;;0.88;0.85;;;7.80;99.90;;;;;;4102364;28;20510;-86
2020/12/12 08:37:35;;;;;;;1.73;1.40;;;7.80;99.90;;;;;;4122629;28;20050;-86
2020/12/12 08:39:36;;;;;;;1.35;1.25;;;7.70;99.90;;;;;;4100171;28;20047;-86
2020/12/12 08:41:38;;;;;;;0.32;0.30;;;7.70;99.90;;;;;;4114306;28;20109;-87
2020/12/12 08:43:44;;;;;;;0.68;0.65;;;7.70;99.90;;;;;;4116904;28;20047;-86
2020/12/12 08:45:59;;;;;;;1.45;1.35;;;7.80;99.90;;;;;;4101018;28;20137;-87
2020/12/12 08:48:02;;;;;;;1.20;1.20;;;7.80;99.90;;;;;;4131827;28;20054;-86
2020/12/12 08:50:03;;;;;;;0.50;0.50;;;7.80;99.90;;;;;;4100365;28;20050;-87
2020/12/12 08:52:04;;;;;;;0.32;0.30;;;7.80;99.90;;;;;;4116036;28;20089;-86
2020/12/12 08:54:10;;;;;;;0.75;0.75;;;7.90;99.90;;;;;;4133121;28;20478;-87
2020/12/12 08:56:30;;;;;;;2.17;0.90;;;7.90;99.90;;;;;;4115726;28;20057;-86
2020/12/12 08:58:42;;;;;;;0.85;0.80;;;7.90;99.90;;;;;;4099974;28;20599;-87
2020/12/12 09:00:43;;;;;;;5.60;0.82;;;7.90;99.90;;;;;;4101540;28;20057;-87
2020/12/12 09:02:44;;;;;;;0.68;0.68;;;7.90;99.90;;;;;;4116085;28;20586;-87
2020/12/12 09:04:46;;;;;;;0.60;0.60;;;7.90;99.90;;;;;;4115675;28;20133;-87
2020/12/12 09:06:58;;;;;;;1.02;0.57;;;7.90;99.90;;;;;;4084845;29;20055;-86
2020/12/12 09:09:06;;;;;;;1.33;0.60;;;7.90;99.90;;;;;;4116043;28;20087;-87
2020/12/12 09:11:11;;;;;;;1.27;0.30;;;8.00;99.90;;;;;;4108522;28;20047;-86
2020/12/12 09:13:13;;;;;;;0.50;0.50;;;8.00;99.90;;;;;;4096468;28;20495;-88
2020/12/12 09:15:14;;;;;;;1.67;1.58;;;8.00;99.90;;;;;;4107516;28;20436;-90
2020/12/12 09:17:15;;;;;;;0.85;0.75;;;8.10;99.90;;;;;;4083489;29;20050;-88
2020/12/12 09:19:17;;;;;;;1.42;1.13;;;8.10;99.90;;;;;;4127435;28;20046;-88
2020/12/12 09:21:18;;;;;;;0.68;0.65;;;8.10;99.90;;;;;;4100187;28;20055;-88
2020/12/12 09:23:19;;;;;;;1.25;1.02;;;8.20;99.90;;;;;;4113074;28;20039;-89
2020/12/12 09:25:20;;;;;;;1.25;0.77;;;8.20;99.90;;;;;;4129701;28;20057;-87
2020/12/12 09:27:22;;;;;;;0.70;0.60;;;8.20;99.90;;;;;;4120677;28;20065;-87
2020/12/12 09:29:23;;;;;;;1.10;1.00;;;8.20;99.90;;;;;;4121568;28;20050;-85
2020/12/12 09:31:25;;;;;;;1.17;1.08;;;8.20;99.90;;;;;;4129058;28;20050;-87
2020/12/12 09:33:27;;;;;;;2.90;1.30;;;8.20;99.90;;;;;;4105393;28;20511;-86
2020/12/12 09:35:28;;;;;;;0.57;0.50;;;8.20;99.90;;;;;;4120424;28;20105;-87
2020/12/12 09:37:29;;;;;;;1.15;0.95;;;8.20;99.90;;;;;;4118042;28;20055;-88
2020/12/12 09:39:31;;;;;;;1.58;0.85;;;8.20;99.90;;;;;;4127229;28;20042;-87
2020/12/12 09:41:32;;;;;;;1.98;1.40;;;8.20;99.90;;;;;;4098879;28;20044;-87
2020/12/12 09:43:33;;;;;;;1.15;1.00;;;8.30;99.90;;;;;;4099338;28;20555;-87
2020/12/12 09:45:34;;;;;;;1.08;0.95;;;8.30;99.90;;;;;;4095971;28;20059;-88
2020/12/12 09:47:36;;;;;;;0.82;0.82;;;8.30;99.90;;;;;;4090045;28;20047;-88
2020/12/12 09:49:37;;;;;;;1.08;0.70;;;8.30;99.90;;;;;;4111500;28;20125;-87
2020/12/12 09:51:38;;;;;;;2.45;1.33;;;8.30;99.90;;;;;;4099149;28;20456;-85
2020/12/12 09:53:41;;;;;;;1.95;1.05;;;8.30;99.90;;;;;;4111906;28;20054;-86
2020/12/12 09:55:42;;;;;;;1.38;1.15;;;8.30;99.90;;;;;;4082740;29;20051;-86
2020/12/12 09:57:44;;;;;;;2.80;1.30;;;8.30;99.90;;;;;;4096889;28;20047;-86
2020/12/12 09:59:45;;;;;;;1.23;0.98;;;8.30;99.90;;;;;;4093416;28;20051;-86
2020/12/12 10:01:47;;;;;;;0.47;0.40;;;8.30;99.90;;;;;;4102172;28;20083;-86
2020/12/12 10:03:48;;;;;;;0.40;0.40;;;8.40;99.90;;;;;;4086199;29;20094;-87
2020/12/12 10:05:50;;;;;;;1.02;0.70;;;8.40;99.90;;;;;;4095478;28;20427;-85
2020/12/12 10:07:54;;;;;;;1.33;1.17;;;8.40;99.90;;;;;;4086274;28;20055;-86
2020/12/12 10:09:55;;;;;;;1.38;0.82;;;8.50;99.90;;;;;;4084712;29;20055;-86
2020/12/12 10:11:56;;;;;;;0.50;0.50;;;8.50;99.90;;;;;;4119181;28;20051;-86
2020/12/12 10:13:57;;;;;;;2.50;1.20;;;8.50;99.90;;;;;;4089728;28;20122;-87
2020/12/12 10:15:59;;;;;;;0.80;0.63;;;8.60;99.90;;;;;;4084617;29;20070;-86
2020/12/12 10:18:00;;;;;;;0.47;0.40;;;8.60;99.90;;;;;;4103374;28;20051;-86
2020/12/12 10:20:02;;;;;;;1.52;1.42;;;8.60;99.90;;;;;;4118747;28;20133;-87
2020/12/12 10:22:03;;;;;;;1.58;1.38;;;8.70;99.90;;;;;;4114717;28;20078;-84
2020/12/12 10:24:04;;;;;;;3.42;1.58;;;8.70;99.90;;;;;;4098021;28;20082;-86
2020/12/12 10:26:05;;;;;;;0.65;0.60;;;8.70;99.90;;;;;;4090672;28;20134;-86
2020/12/12 10:28:07;;;;;;;1.90;1.23;;;8.80;99.90;;;;;;4083064;28;20052;-85
2020/12/12 10:30:09;;;;;;;1.60;0.88;;;8.80;99.90;;;;;;4082659;29;20066;-86
2020/12/12 10:32:10;;;;;;;1.17;0.77;;;8.90;99.90;;;;;;4112870;28;20499;-86
2020/12/12 10:34:12;;;;;;;3.05;1.50;;;8.90;99.90;;;;;;4098922;28;20062;-86
2020/12/12 10:36:13;;;;;;;1.02;0.95;;;9.00;99.90;;;;;;4089857;28;20063;-86
2020/12/12 10:38:14;;;;;;;1.98;0.80;;;9.00;99.90;;;;;;4102780;28;20050;-85
2020/12/12 10:40:22;;;;;;;1.52;0.80;;;9.00;99.90;;;;;;4084270;28;20134;-86
2020/12/12 10:42:23;;;;;;;0.73;0.65;;;9.10;99.90;;;;;;4087512;29;20048;-86
2020/12/12 10:44:25;;;;;;;1.23;0.70;;;9.00;99.90;;;;;;4090215;29;20409;-86
2020/12/12 10:46:26;;;;;;;5.57;0.98;;;9.10;99.90;;;;;;4113618;28;20087;-86